createdAt,value
2023-01-23T00:01:29.218Z,-0.94
2023-01-23T00:03:57.664Z,-0.89
2023-01-23T00:06:25.558Z,-0.95
2023-01-23T00:08:52.883Z,-0.91
2023-01-23T00:11:23.538Z,-0.90
2023-01-23T00:13:51.533Z,-0.87
2023-01-23T00:16:21.669Z,-1.00
2023-01-23T00:18:49.752Z,-1.03
2023-01-23T00:24:06.235Z,-1.02
2023-01-23T00:26:34.690Z,-1.06
2023-01-23T00:29:03.572Z,-1.08
2023-01-23T00:31:35.587Z,-1.05
2023-01-23T00:34:06.614Z,-1.07
2023-01-23T00:36:37.152Z,-1.06
2023-01-23T00:39:07.128Z,-1.13
2023-01-23T00:41:34.442Z,-0.98
2023-01-23T00:44:01.896Z,-1.00
2023-01-23T00:46:32.139Z,-1.05
2023-01-23T00:48:59.297Z,-1.06
2023-01-23T00:51:29.837Z,-1.07
2023-01-23T00:53:57.386Z,-1.04
2023-01-23T00:56:24.940Z,-1.08
2023-01-23T00:58:54.007Z,-1.04
2023-01-23T01:01:22.899Z,-1.04
2023-01-23T01:03:50.625Z,-1.04
2023-01-23T01:06:17.778Z,-1.10
2023-01-23T01:08:45.031Z,-1.10
2023-01-23T01:11:13.648Z,-1.10
2023-01-23T01:13:41.236Z,-1.08
2023-01-23T01:16:19.360Z,-1.03
2023-01-23T01:18:49.322Z,-0.95
2023-01-23T01:21:19.959Z,-1.04
2023-01-23T01:23:50.322Z,-1.06
2023-01-23T01:26:23.050Z,-1.06
2023-01-23T01:28:51.081Z,-1.02
2023-01-23T01:31:24.641Z,-1.00
2023-01-23T01:34:00.601Z,-1.01
2023-01-23T01:36:33.653Z,-1.00
2023-01-23T01:39:01.560Z,-1.00
2023-01-23T01:41:29.502Z,-1.00
2023-01-23T01:43:57.524Z,-1.08
2023-01-23T01:46:29.742Z,-1.08
2023-01-23T01:49:11.273Z,-1.06
2023-01-23T01:51:50.510Z,-0.91
2023-01-23T01:54:37.729Z,-1.01
2023-01-23T01:57:10.282Z,-1.05
2023-01-23T01:59:56.006Z,-1.08
2023-01-23T02:02:38.886Z,-1.04
2023-01-23T02:05:11.690Z,-1.01
2023-01-23T02:07:49.624Z,-1.07
2023-01-23T02:10:19.052Z,-1.03
2023-01-23T02:12:48.418Z,-1.04
2023-01-23T02:15:16.978Z,-1.02
2023-01-23T02:17:47.244Z,-1.03
2023-01-23T02:20:26.105Z,-1.00
2023-01-23T02:23:12.293Z,-1.01
2023-01-23T02:25:45.574Z,-0.97
2023-01-23T02:28:25.203Z,-0.93
2023-01-23T02:31:39.257Z,-1.04
2023-01-23T02:34:06.688Z,-1.05
2023-01-23T02:36:38.346Z,-1.09
2023-01-23T02:39:10.321Z,-1.10
2023-01-23T02:41:41.373Z,-1.06
2023-01-23T02:44:17.437Z,-1.03
2023-01-23T02:46:56.889Z,-0.98
2023-01-23T02:49:27.018Z,-0.98
2023-01-23T02:51:55.780Z,-0.96
2023-01-23T02:54:24.895Z,-0.92
2023-01-23T02:56:52.218Z,-1.03
2023-01-23T02:59:40.721Z,-0.93
2023-01-23T03:02:09.879Z,-0.93
2023-01-23T03:04:37.707Z,-0.87
2023-01-23T03:07:05.283Z,-0.91
2023-01-23T03:09:43.519Z,-0.86
2023-01-23T03:12:13.549Z,-0.95
2023-01-23T03:14:43.617Z,-0.90
2023-01-23T03:17:22.652Z,-0.91
2023-01-23T03:19:50.445Z,-0.99
2023-01-23T03:22:17.750Z,-1.00
2023-01-23T03:24:44.976Z,-0.91
2023-01-23T03:27:12.909Z,-0.88
2023-01-23T03:30:03.447Z,-0.84
2023-01-23T03:32:30.949Z,-0.82
2023-01-23T03:34:59.385Z,-0.86
2023-01-23T03:37:30.176Z,-0.88
2023-01-23T03:40:17.418Z,-0.82
2023-01-23T03:42:44.754Z,-0.88
2023-01-23T03:45:18.115Z,-0.93
2023-01-23T03:47:45.622Z,-0.95
2023-01-23T03:50:13.071Z,-0.96
2023-01-23T03:52:40.540Z,-0.87
2023-01-23T03:55:11.005Z,-0.96
2023-01-23T03:57:39.105Z,-0.96
2023-01-23T04:00:25.437Z,-0.98
2023-01-23T04:03:02.563Z,-0.92
2023-01-23T04:05:30.280Z,-0.96
2023-01-23T04:08:00.514Z,-1.00
2023-01-23T04:10:33.423Z,-1.00
2023-01-23T04:13:08.078Z,-0.94
2023-01-23T04:15:35.313Z,-0.97
2023-01-23T04:18:05.544Z,-0.84
2023-01-23T04:20:33.282Z,-0.94
2023-01-23T04:23:00.603Z,-0.96
2023-01-23T04:25:29.306Z,-0.92
2023-01-23T04:27:56.779Z,-0.98
2023-01-23T04:30:23.876Z,-1.01
2023-01-23T04:32:51.511Z,-1.00
2023-01-23T04:35:19.944Z,-0.97
2023-01-23T04:37:47.186Z,-1.04
2023-01-23T04:40:15.083Z,-1.01
2023-01-23T04:42:58.586Z,-1.02
2023-01-23T04:45:37.085Z,-1.03
2023-01-23T04:48:33.766Z,-1.02
2023-01-23T04:51:01.318Z,-1.02
2023-01-23T04:53:38.968Z,-1.05
2023-01-23T04:56:08.020Z,-1.08
2023-01-23T04:58:37.572Z,-1.08
2023-01-23T05:01:07.667Z,-1.05
2023-01-23T05:03:37.348Z,-1.01
2023-01-23T05:06:09.001Z,-1.01
2023-01-23T05:08:36.175Z,-1.01
2023-01-23T05:11:16.846Z,-0.99
2023-01-23T05:13:44.680Z,-0.92
2023-01-23T05:16:13.481Z,-0.87
2023-01-23T05:19:03.278Z,-0.86
2023-01-23T05:21:35.289Z,-0.81
2023-01-23T05:24:07.514Z,-0.89
2023-01-23T05:26:38.067Z,-0.91
2023-01-23T05:29:11.686Z,-1.00
2023-01-23T05:31:53.727Z,-0.98
2023-01-23T05:34:43.708Z,-0.94
2023-01-23T05:37:20.716Z,-0.97
2023-01-23T05:39:53.654Z,-0.96
2023-01-23T05:42:21.767Z,-0.91
2023-01-23T05:45:27.343Z,-0.83
2023-01-23T05:47:55.854Z,-0.84
2023-01-23T05:50:24.797Z,-0.90
2023-01-23T05:52:53.505Z,-0.90
2023-01-23T05:55:20.769Z,-0.89
2023-01-23T05:57:49.669Z,-0.88
2023-01-23T06:00:36.948Z,-0.96
2023-01-23T06:03:26.707Z,-0.96
2023-01-23T06:06:09.891Z,-0.96
2023-01-23T06:08:37.109Z,-0.99
2023-01-23T06:11:04.423Z,-1.02
2023-01-23T06:13:31.544Z,-1.02
2023-01-23T06:16:00.623Z,-1.03
2023-01-23T06:18:27.803Z,-0.94
2023-01-23T06:21:00.059Z,-0.99
2023-01-23T06:23:29.064Z,-0.92
2023-01-23T06:26:01.563Z,-0.93
2023-01-23T06:28:29.696Z,-0.89
2023-01-23T06:31:00.942Z,-0.93
2023-01-23T06:33:38.958Z,-0.97
2023-01-23T06:36:10.441Z,-0.97
2023-01-23T06:38:38.613Z,-0.97
2023-01-23T06:41:09.803Z,-0.98
2023-01-23T06:43:39.476Z,-0.91
2023-01-23T06:46:12.344Z,-0.91
2023-01-23T06:48:39.488Z,-0.87
2023-01-23T06:51:06.876Z,-0.95
2023-01-23T06:53:34.082Z,-0.96
2023-01-23T06:56:05.388Z,-0.99
2023-01-23T06:58:35.286Z,-0.93
2023-01-23T07:01:10.960Z,-0.93
2023-01-23T07:04:13.205Z,-0.94
2023-01-23T07:06:42.108Z,-1.01
2023-01-23T07:09:10.760Z,-1.05
2023-01-23T07:11:39.586Z,-1.01
2023-01-23T07:14:07.243Z,-0.99
2023-01-23T07:16:39.205Z,-0.98
2023-01-23T07:19:06.455Z,-0.96
2023-01-23T07:21:36.064Z,-0.93
2023-01-23T07:24:03.333Z,-0.96
2023-01-23T07:26:30.535Z,-1.04
2023-01-23T07:28:57.625Z,-1.02
2023-01-23T07:31:24.790Z,-0.98
2023-01-23T07:33:52.026Z,-0.96
2023-01-23T07:36:19.171Z,-0.91
2023-01-23T07:38:46.320Z,-0.90
2023-01-23T07:41:13.481Z,-0.96
2023-01-23T07:43:40.641Z,-0.92
2023-01-23T07:46:09.529Z,-0.89
2023-01-23T07:49:02.087Z,-0.87
2023-01-23T07:51:29.170Z,-0.86
2023-01-23T07:53:56.258Z,-0.89
2023-01-23T07:56:23.285Z,-0.87
2023-01-23T07:58:51.197Z,-0.86
2023-01-23T08:01:19.378Z,-0.83
2023-01-23T08:03:47.228Z,-0.83
2023-01-23T08:06:14.359Z,-0.87
2023-01-23T08:08:41.419Z,-0.88
2023-01-23T08:11:12.884Z,-0.83
2023-01-23T08:13:40.570Z,-0.80
2023-01-23T08:16:07.981Z,-0.79
2023-01-23T08:18:35.338Z,-0.80
2023-01-23T08:21:03.656Z,-0.79
2023-01-23T08:23:33.438Z,-0.80
2023-01-23T08:26:04.250Z,-0.72
2023-01-23T08:28:31.713Z,-0.73
2023-01-23T08:31:07.637Z,-0.69
2023-01-23T08:33:35.871Z,-0.61
2023-01-23T08:36:04.186Z,-0.60
2023-01-23T08:38:32.103Z,-0.60
2023-01-23T08:41:01.780Z,-0.59
2023-01-23T08:43:29.434Z,-0.60
2023-01-23T08:45:58.162Z,-0.61
2023-01-23T08:48:27.063Z,-0.59
2023-01-23T08:51:01.623Z,-0.57
2023-01-23T08:53:29.782Z,-0.61
2023-01-23T08:56:01.334Z,-0.59
2023-01-23T08:58:28.629Z,-0.54
2023-01-23T09:00:55.969Z,-0.52
2023-01-23T09:03:23.486Z,-0.45
2023-01-23T09:05:50.802Z,-0.44
2023-01-23T09:08:18.036Z,-0.46
2023-01-23T09:10:45.317Z,-0.50
2023-01-23T09:13:12.489Z,-0.44
2023-01-23T09:15:40.009Z,-0.41
2023-01-23T09:18:07.120Z,-0.35
2023-01-23T09:20:34.264Z,-0.44
2023-01-23T09:23:01.564Z,-0.39
2023-01-23T09:25:31.248Z,-0.45
2023-01-23T09:27:58.518Z,-0.40
2023-01-23T09:30:25.797Z,-0.36
2023-01-23T09:32:53.763Z,-0.27
2023-01-23T09:35:20.972Z,-0.36
2023-01-23T09:37:59.770Z,-0.32
2023-01-23T09:40:30.786Z,-0.42
2023-01-23T09:43:30.469Z,-0.35
2023-01-23T09:46:05.268Z,-0.26
2023-01-23T09:48:54.849Z,-0.25
2023-01-23T09:51:39.395Z,-0.25
2023-01-23T09:54:22.417Z,-0.20
2023-01-23T09:56:55.559Z,-0.21
2023-01-23T09:59:29.315Z,-0.31
2023-01-23T10:01:56.512Z,-0.21
2023-01-23T10:04:24.100Z,-0.27
2023-01-23T10:06:56.839Z,-0.22
2023-01-23T10:09:41.206Z,-0.19
2023-01-23T10:12:29.048Z,-0.24
2023-01-23T10:15:19.615Z,-0.22
2023-01-23T10:18:00.288Z,-0.12
2023-01-23T10:20:51.529Z,-0.28
2023-01-23T10:23:39.802Z,-0.20
2023-01-23T10:26:15.122Z,-0.24
2023-01-23T10:28:43.746Z,-0.22
2023-01-23T10:31:38.599Z,-0.30
2023-01-23T10:34:23.655Z,-0.23
2023-01-23T10:36:59.749Z,-0.22
2023-01-23T10:39:32.077Z,-0.19
2023-01-23T10:42:02.537Z,-0.22
2023-01-23T10:44:30.123Z,-0.18
2023-01-23T10:47:01.927Z,-0.12
2023-01-23T10:49:33.180Z,-0.10
2023-01-23T10:52:01.128Z,-0.07
2023-01-23T10:54:32.312Z,-0.21
2023-01-23T10:57:21.623Z,-0.06
2023-01-23T11:00:04.413Z,-0.08
2023-01-23T11:02:34.083Z,0.06
2023-01-23T11:05:02.828Z,0.02
2023-01-23T11:07:36.796Z,-0.09
2023-01-23T11:10:10.038Z,-0.06
2023-01-23T11:12:48.680Z,-0.03
2023-01-23T11:15:22.216Z,-0.09
2023-01-23T11:17:51.484Z,-0.09
2023-01-23T11:20:29.339Z,-0.15
2023-01-23T11:23:15.821Z,-0.17
2023-01-23T11:25:53.557Z,-0.11
2023-01-23T11:28:35.136Z,-0.16
2023-01-23T11:31:19.428Z,-0.01
2023-01-23T11:34:04.880Z,-0.05
2023-01-23T11:36:38.210Z,-0.02
2023-01-23T11:39:17.362Z,-0.01
2023-01-23T11:41:55.489Z,0.01
2023-01-23T11:44:23.673Z,-0.01
2023-01-23T11:47:15.868Z,0.02
2023-01-23T11:50:11.678Z,-0.11
2023-01-23T11:53:15.807Z,-0.12
2023-01-23T11:56:05.857Z,-0.08
2023-01-23T11:59:12.429Z,-0.14
2023-01-23T12:02:13.010Z,-0.02
2023-01-23T12:05:00.387Z,-0.15
2023-01-23T12:07:27.664Z,-0.17
2023-01-23T12:10:03.848Z,-0.13
2023-01-23T12:12:58.869Z,-0.19
2023-01-23T12:15:54.734Z,-0.15
2023-01-23T12:18:44.858Z,-0.03
2023-01-23T12:21:33.973Z,-0.09
2023-01-23T12:24:01.031Z,-0.04
2023-01-23T12:26:31.065Z,-0.02
2023-01-23T12:29:10.355Z,0.01
2023-01-23T12:31:56.530Z,-0.08
2023-01-23T12:34:48.916Z,-0.06
2023-01-23T12:37:33.935Z,-0.11
2023-01-23T12:40:17.098Z,-0.12
2023-01-23T12:42:53.557Z,-0.03
2023-01-23T12:45:24.286Z,-0.14
2023-01-23T12:48:28.171Z,-0.26
2023-01-23T12:51:31.091Z,-0.21
2023-01-23T12:54:00.561Z,-0.20
2023-01-23T12:56:33.629Z,-0.11
2023-01-23T12:59:08.043Z,-0.08
2023-01-23T13:01:50.442Z,0.03
2023-01-23T13:04:42.913Z,0.01
2023-01-23T13:07:24.302Z,-0.15
2023-01-23T13:10:07.352Z,-0.20
2023-01-23T13:12:34.651Z,-0.31
2023-01-23T13:15:34.288Z,-0.20
2023-01-23T13:18:04.643Z,-0.24
2023-01-23T13:20:56.587Z,-0.38
2023-01-23T13:23:28.375Z,-0.40
2023-01-23T13:26:12.540Z,-0.44
2023-01-23T13:28:48.102Z,-0.44
2023-01-23T13:31:35.402Z,-0.43
2023-01-23T13:34:15.636Z,-0.35
2023-01-23T13:36:49.210Z,-0.31
2023-01-23T13:39:16.892Z,-0.29
2023-01-23T13:41:46.232Z,-0.29
2023-01-23T13:44:18.930Z,-0.39
2023-01-23T14:21:55.159Z,-0.55
2023-01-23T14:24:29.283Z,-0.52
2023-01-23T14:27:07.419Z,-0.47
2023-01-23T14:29:35.332Z,-0.49
2023-01-23T14:32:02.753Z,-0.50
2023-01-23T14:34:29.824Z,-0.49
2023-01-23T14:37:04.002Z,-0.57
2023-01-23T14:39:34.298Z,-0.55
2023-01-23T14:42:03.673Z,-0.47
2023-01-23T14:44:39.724Z,-0.62
2023-01-23T14:47:10.133Z,-0.54
2023-01-23T14:49:37.437Z,-0.50
2023-01-23T14:52:07.066Z,-0.53
2023-01-23T14:54:36.841Z,-0.52
2023-01-23T14:57:06.388Z,-0.51
2023-01-23T14:59:39.771Z,-0.50
2023-01-23T15:02:33.888Z,-0.42
2023-01-23T15:05:13.566Z,-0.49
2023-01-23T15:08:15.877Z,-0.62
2023-01-23T15:10:42.906Z,-0.63
2023-01-23T15:13:24.483Z,-0.70
2023-01-23T15:15:58.233Z,-0.64
2023-01-23T15:18:31.898Z,-0.71
2023-01-23T15:21:06.971Z,-0.73
2023-01-23T15:23:37.345Z,-0.69
2023-01-23T15:26:14.998Z,-0.65
2023-01-23T15:29:12.229Z,-0.68
2023-01-23T15:31:39.490Z,-0.68
2023-01-23T15:34:15.839Z,-0.73
2023-01-23T15:36:49.725Z,-0.70
2023-01-23T15:40:04.454Z,-0.71
2023-01-23T15:42:33.710Z,-0.72
2023-01-23T15:45:01.926Z,-0.65
2023-01-23T15:47:34.630Z,-0.73
2023-01-23T15:50:02.925Z,-0.73
2023-01-23T15:52:45.392Z,-0.78
2023-01-23T15:55:13.609Z,-0.77
2023-01-23T15:57:43.132Z,-0.77
2023-01-23T16:00:40.406Z,-0.79
2023-01-23T16:03:07.563Z,-0.75
2023-01-23T16:05:37.037Z,-0.74
2023-01-23T16:08:11.439Z,-0.76
2023-01-23T16:10:42.627Z,-0.69
2023-01-23T16:13:12.826Z,-0.73
2023-01-23T16:15:41.801Z,-0.71
2023-01-23T16:18:12.334Z,-0.66
2023-01-23T16:20:49.074Z,-0.67
2023-01-23T16:23:24.713Z,-0.76
2023-01-23T16:25:53.315Z,-0.78
2023-01-23T16:29:13.690Z,-0.70
2023-01-23T16:31:41.970Z,-0.71
2023-01-23T16:34:09.090Z,-0.68
2023-01-23T16:36:41.935Z,-0.78
2023-01-23T16:39:17.166Z,-0.72
2023-01-23T16:41:45.615Z,-0.74
2023-01-23T16:44:17.117Z,-0.62
2023-01-23T16:46:47.969Z,-0.60
2023-01-23T16:49:15.114Z,-0.63
2023-01-23T16:51:46.312Z,-0.63
2023-01-23T16:54:18.920Z,-0.50
2023-01-23T16:56:54.569Z,-0.58
2023-01-23T16:59:32.696Z,-0.59
2023-01-23T17:02:25.598Z,-0.65
2023-01-23T17:04:52.759Z,-0.53
2023-01-23T17:07:20.270Z,-0.57
2023-01-23T17:09:47.765Z,-0.63
2023-01-23T17:15:02.733Z,-0.59
2023-01-23T17:17:33.325Z,-0.69
2023-01-23T17:20:01.807Z,-0.64
2023-01-23T17:22:30.612Z,-0.68
2023-01-23T17:24:57.881Z,-0.72
2023-01-23T17:27:24.917Z,-0.72
2023-01-23T17:29:51.995Z,-0.70
2023-01-23T17:32:24.982Z,-0.77
2023-01-23T17:34:53.857Z,-0.77
2023-01-23T17:37:22.680Z,-0.82
2023-01-23T17:39:50.938Z,-0.86
2023-01-23T17:42:25.266Z,-0.84
2023-01-23T17:44:52.391Z,-0.77
2023-01-23T17:47:19.660Z,-0.80
2023-01-23T17:49:59.071Z,-0.84
2023-01-23T17:52:28.611Z,-0.72
2023-01-23T17:54:55.697Z,-0.74
2023-01-23T17:57:22.775Z,-0.66
2023-01-23T17:59:50.012Z,-0.71
2023-01-23T18:02:26.298Z,-0.85
2023-01-23T18:04:56.538Z,-0.84
2023-01-23T18:07:24.092Z,-0.80
2023-01-23T18:09:52.440Z,-0.83
2023-01-23T18:12:41.560Z,-0.89
2023-01-23T18:15:16.666Z,-0.94
2023-01-23T18:17:56.012Z,-0.90
2023-01-23T18:20:23.489Z,-0.92
2023-01-23T18:22:50.899Z,-0.93
2023-01-23T18:25:19.511Z,-0.94
2023-01-23T18:27:50.955Z,-0.94
2023-01-23T18:30:50.919Z,-0.88
2023-01-23T18:33:31.842Z,-1.00
2023-01-23T18:36:37.927Z,-0.94
2023-01-23T18:39:32.089Z,-0.96
2023-01-23T18:42:14.425Z,-0.93
2023-01-23T18:45:05.509Z,-0.93
2023-01-23T18:47:32.700Z,-0.89
2023-01-23T18:50:00.467Z,-0.90
2023-01-23T18:52:35.363Z,-0.89
2023-01-23T18:55:28.711Z,-0.88
2023-01-23T18:58:32.889Z,-0.90
2023-01-23T19:01:18.464Z,-0.98
2023-01-23T19:03:46.657Z,-0.91
2023-01-23T19:06:25.098Z,-0.85
2023-01-23T19:08:54.179Z,-0.84
2023-01-23T19:11:30.583Z,-0.88
2023-01-23T19:14:24.441Z,-0.92
2023-01-23T19:17:35.400Z,-0.94
2023-01-23T19:20:16.091Z,-0.94
2023-01-23T19:22:55.377Z,-0.98
2023-01-23T19:25:23.100Z,-0.84
2023-01-23T19:27:52.759Z,-0.91
2023-01-23T19:30:21.488Z,-0.91
2023-01-23T19:32:49.887Z,-0.87
2023-01-23T19:35:17.451Z,-0.93
2023-01-23T19:37:45.274Z,-0.98
2023-01-23T19:40:15.712Z,-0.99
2023-01-23T19:42:54.291Z,-0.93
2023-01-23T19:45:28.569Z,-0.92
2023-01-23T19:47:55.740Z,-0.84
2023-01-23T19:50:22.849Z,-0.90
2023-01-23T19:52:50.384Z,-0.96
2023-01-23T19:55:29.197Z,-0.94
2023-01-23T19:58:02.408Z,-0.93
2023-01-23T20:00:32.151Z,-0.88
2023-01-23T20:02:59.637Z,-0.89
2023-01-23T20:05:27.233Z,-0.83
2023-01-23T20:07:54.604Z,-0.82
2023-01-23T20:10:22.394Z,-0.88
2023-01-23T20:12:55.257Z,-0.97
2023-01-23T20:15:25.274Z,-1.01
2023-01-23T20:17:53.610Z,-0.94
2023-01-23T20:20:21.755Z,-0.90
2023-01-23T20:22:48.998Z,-0.89
2023-01-23T20:25:17.061Z,-0.96
2023-01-23T20:27:44.822Z,-0.98
2023-01-23T20:30:17.426Z,-1.00
2023-01-23T20:32:44.569Z,-0.98
2023-01-23T20:35:11.969Z,-0.97
2023-01-23T20:37:39.062Z,-0.97
2023-01-23T20:40:08.880Z,-0.99
2023-01-23T20:42:36.031Z,-0.97
2023-01-23T20:45:03.700Z,-0.93
2023-01-23T20:47:30.770Z,-0.94
2023-01-23T20:50:00.610Z,-0.96
2023-01-23T20:52:46.375Z,-0.96
2023-01-23T20:55:13.565Z,-0.88
2023-01-23T20:57:59.410Z,-0.77
2023-01-23T21:00:26.442Z,-0.83
2023-01-23T21:02:53.594Z,-0.83
2023-01-23T21:05:21.024Z,-0.85
2023-01-23T21:07:48.276Z,-0.84
2023-01-23T21:10:15.982Z,-0.92
2023-01-23T21:12:45.559Z,-0.85
2023-01-23T21:15:12.638Z,-0.94
2023-01-23T21:17:39.696Z,-0.97
2023-01-23T21:20:07.539Z,-0.96
2023-01-23T21:22:34.678Z,-0.86
2023-01-23T21:25:01.778Z,-0.81
2023-01-23T21:27:34.600Z,-0.92
2023-01-23T21:30:01.664Z,-0.97
2023-01-23T21:32:28.733Z,-0.93
2023-01-23T21:34:58.534Z,-0.96
2023-01-23T21:37:25.697Z,-0.89
2023-01-23T21:39:54.223Z,-0.91
2023-01-23T21:42:21.247Z,-0.98
2023-01-23T21:44:52.267Z,-0.90
2023-01-23T21:47:23.834Z,-0.90
2023-01-23T21:49:51.780Z,-0.88
2023-01-23T21:52:18.750Z,-0.89
2023-01-23T21:54:48.546Z,-0.88
2023-01-23T21:57:15.621Z,-0.93
2023-01-23T22:00:05.513Z,-0.86
2023-01-23T22:02:39.129Z,-0.89
2023-01-23T22:05:06.726Z,-0.82
2023-01-23T22:07:33.807Z,-0.66
2023-01-23T22:10:04.007Z,-0.78
2023-01-23T22:12:31.079Z,-0.82
2023-01-23T22:14:58.161Z,-0.85
2023-01-23T22:17:25.219Z,-0.87
2023-01-23T22:19:52.346Z,-0.87
2023-01-23T22:22:20.971Z,-0.85
2023-01-23T22:24:48.005Z,-0.93
2023-01-23T22:27:15.173Z,-0.95
2023-01-23T22:29:42.488Z,-0.82
2023-01-23T22:32:10.183Z,-0.97
2023-01-23T22:34:37.334Z,-0.87
2023-01-23T22:37:04.280Z,-0.91
2023-01-23T22:39:32.211Z,-0.85
2023-01-23T22:41:59.347Z,-0.84
2023-01-23T22:44:26.497Z,-0.89
2023-01-23T22:46:56.247Z,-0.98
2023-01-23T22:49:23.401Z,-0.98
2023-01-23T22:51:53.439Z,-1.01
2023-01-23T22:54:23.435Z,-0.91
2023-01-23T22:56:50.521Z,-0.91
2023-01-23T22:59:18.158Z,-0.99
2023-01-23T23:01:45.302Z,-0.96
2023-01-23T23:04:32.116Z,-0.91
2023-01-23T23:06:59.480Z,-0.96
2023-01-23T23:09:29.452Z,-0.96
2023-01-23T23:12:10.692Z,-0.93
2023-01-23T23:14:37.820Z,-0.91
2023-01-23T23:17:10.071Z,-0.94
2023-01-23T23:19:37.172Z,-0.87
2023-01-23T23:22:07.991Z,-1.00
2023-01-23T23:24:35.105Z,-1.02
2023-01-23T23:27:05.487Z,-1.01
2023-01-23T23:29:33.074Z,-1.04
2023-01-23T23:32:08.770Z,-1.05
2023-01-23T23:34:38.051Z,-1.04
2023-01-23T23:39:50.039Z,-0.89
2023-01-23T23:42:17.089Z,-0.92
2023-01-23T23:44:44.135Z,-0.90
2023-01-23T23:47:11.158Z,-0.94
2023-01-23T23:49:38.235Z,-0.89
2023-01-23T23:52:05.767Z,-0.84
2023-01-23T23:54:33.965Z,-0.81
2023-01-23T23:57:00.990Z,-0.82
2023-01-23T23:59:28.030Z,-0.87
